Strona główna
METAR-TAF:

METAR-TAF

Lotnisko :

Rantoul National Aviation Center Airport (Frank Elliott Field)

Rantoul, Illinois, Stany Zjednoczone

Szerokość geograficzna: 40-17-37N, Długość geograficzna: 088-08-33W, wysokość: 225 m

Aktualna obserwacja pogody

Raport powstał 25 minut temu, godzina 18:35 UTC
Wiatr 4 kt od północno-północny zachód
Temperatura -6°C
Wilgotność 86%
Ciśnienie 1036 hPa
Widzialność: 16.1 km
Zachmurzenie całkowite na wysokości 5000 ft

METAR: KTIP 201835Z AUTO 34004KT 10SM OVC050 M06/M08 A3059 RMK AO2 T10571084

czas: 13:00 (19:00 UTC)


TAF: brakujący

Obserwacja i prognoza pogody dla ponad 4000 lotnisk (raport METAR i TAF).

Dostępne stacje oznaczono żółtymi i czerwonymi punktami na mapie.

Najedź kursorem aby zobaczyć nazwę stacji.

Kliknij aby zobaczyć obserwacje i prognozy pogody.

Aby zmienić mapę: kliknij na zielony przycisk z czarnym krzyżykiem, aby powiększyć; na zielony przycisk z myślnikiem, aby pomniejszyć; na zielone strzałki, aby przejść do map sąsiednich.


METAR-TAF: